sensor_id;sensor_type;location;lat;lon;timestamp;pressure;altitude;pressure_sealevel;temperature;humidity
60719;BME280;46567;51.660;5.824;2023-09-12T00:03:21;128980.0;;;190.6;100.0
60719;BME280;46567;51.660;5.824;2023-09-12T00:08:16;129010.0;;;190.6;100.0
60719;BME280;46567;51.660;5.824;2023-09-12T00:13:16;128990.0;;;190.6;100.0
60719;BME280;46567;51.660;5.824;2023-09-12T00:18:16;129060.0;;;190.6;100.0
60719;BME280;46567;51.660;5.824;2023-09-12T00:23:16;129080.0;;;190.6;100.0
60719;BME280;46567;51.660;5.824;2023-09-12T00:28:16;129070.0;;;190.6;100.0
60719;BME280;46567;51.660;5.824;2023-09-12T00:33:16;129050.0;;;190.6;100.0
60719;BME280;46567;51.660;5.824;2023-09-12T00:38:16;129050.0;;;190.6;100.0
60719;BME280;46567;51.660;5.824;2023-09-12T00:43:16;129020.0;;;190.6;100.0
60719;BME280;46567;51.660;5.824;2023-09-12T00:48:20;129010.0;;;190.6;100.0
60719;BME280;46567;51.660;5.824;2023-09-12T00:53:17;129010.0;;;190.6;100.0
60719;BME280;46567;51.660;5.824;2023-09-12T00:58:16;129000.0;;;190.6;100.0
60719;BME280;46567;51.660;5.824;2023-09-12T01:03:16;129010.0;;;190.6;100.0
60719;BME280;46567;51.660;5.824;2023-09-12T01:08:16;129030.0;;;190.6;100.0
60719;BME280;46567;51.660;5.824;2023-09-12T01:13:16;129040.0;;;190.6;100.0
60719;BME280;46567;51.660;5.824;2023-09-12T01:18:16;129040.0;;;190.6;100.0
60719;BME280;46567;51.660;5.824;2023-09-12T01:27:12;129060.0;;;190.6;100.0
60719;BME280;46567;51.660;5.824;2023-09-12T01:29:24;129070.0;;;190.6;100.0
60719;BME280;46567;51.660;5.824;2023-09-12T01:33:16;129100.0;;;190.6;100.0
60719;BME280;46567;51.660;5.824;2023-09-12T01:38:16;129110.0;;;190.6;100.0
60719;BME280;46567;51.660;5.824;2023-09-12T01:48:23;129100.0;;;190.6;100.0
60719;BME280;46567;51.660;5.824;2023-09-12T01:53:16;129090.0;;;190.6;100.0
60719;BME280;46567;51.660;5.824;2023-09-12T01:58:16;129100.0;;;190.6;100.0
60719;BME280;46567;51.660;5.824;2023-09-12T02:03:16;129100.0;;;190.6;100.0
60719;BME280;46567;51.660;5.824;2023-09-12T02:13:16;129110.0;;;190.6;100.0
60719;BME280;46567;51.660;5.824;2023-09-12T02:18:16;129130.0;;;190.6;100.0
60719;BME280;46567;51.660;5.824;2023-09-12T02:23:16;129140.0;;;190.6;100.0
60719;BME280;46567;51.660;5.824;2023-09-12T02:28:16;129150.0;;;190.6;100.0
60719;BME280;46567;51.660;5.824;2023-09-12T02:33:16;129170.0;;;190.6;100.0
60719;BME280;46567;51.660;5.824;2023-09-12T02:38:17;129190.0;;;190.6;100.0
60719;BME280;46567;51.660;5.824;2023-09-12T02:43:16;129210.0;;;190.6;100.0
60719;BME280;46567;51.660;5.824;2023-09-12T02:48:16;129210.0;;;190.6;100.0
60719;BME280;46567;51.660;5.824;2023-09-12T02:53:16;129220.0;;;190.6;100.0
60719;BME280;46567;51.660;5.824;2023-09-12T02:58:16;129240.0;;;190.6;100.0
60719;BME280;46567;51.660;5.824;2023-09-12T03:03:16;129240.0;;;190.6;100.0
60719;BME280;46567;51.660;5.824;2023-09-12T03:08:16;129260.0;;;190.6;100.0
60719;BME280;46567;51.660;5.824;2023-09-12T03:13:16;129260.0;;;190.6;100.0
60719;BME280;46567;51.660;5.824;2023-09-12T03:18:16;129270.0;;;190.6;100.0
60719;BME280;46567;51.660;5.824;2023-09-12T03:23:16;129280.0;;;190.6;100.0
60719;BME280;46567;51.660;5.824;2023-09-12T03:28:16;129300.0;;;190.6;100.0
60719;BME280;46567;51.660;5.824;2023-09-12T03:33:16;129290.0;;;190.6;100.0
60719;BME280;46567;51.660;5.824;2023-09-12T03:38:16;129270.0;;;190.6;100.0
60719;BME280;46567;51.660;5.824;2023-09-12T03:43:16;129260.0;;;190.6;100.0
60719;BME280;46567;51.660;5.824;2023-09-12T03:48:16;129250.0;;;190.6;100.0
60719;BME280;46567;51.660;5.824;2023-09-12T03:53:16;129250.0;;;190.6;100.0
60719;BME280;46567;51.660;5.824;2023-09-12T03:58:16;129260.0;;;190.6;100.0
60719;BME280;46567;51.660;5.824;2023-09-12T04:03:16;129260.0;;;190.6;100.0
60719;BME280;46567;51.660;5.824;2023-09-12T04:08:16;129260.0;;;190.6;100.0
60719;BME280;46567;51.660;5.824;2023-09-12T04:13:16;129270.0;;;190.6;100.0
60719;BME280;46567;51.660;5.824;2023-09-12T04:18:16;129260.0;;;190.6;100.0
60719;BME280;46567;51.660;5.824;2023-09-12T04:23:16;129290.0;;;190.6;100.0
60719;BME280;46567;51.660;5.824;2023-09-12T04:28:16;129300.0;;;190.6;100.0
60719;BME280;46567;51.660;5.824;2023-09-12T04:33:16;129300.0;;;190.6;100.0
60719;BME280;46567;51.660;5.824;2023-09-12T04:38:16;129290.0;;;190.6;100.0
60719;BME280;46567;51.660;5.824;2023-09-12T04:43:16;129280.0;;;190.6;100.0
60719;BME280;46567;51.660;5.824;2023-09-12T04:48:16;129280.0;;;190.6;100.0
60719;BME280;46567;51.660;5.824;2023-09-12T04:53:16;129280.0;;;190.6;100.0
60719;BME280;46567;51.660;5.824;2023-09-12T04:58:16;129290.0;;;190.6;100.0
60719;BME280;46567;51.660;5.824;2023-09-12T05:03:16;129300.0;;;190.6;100.0
60719;BME280;46567;51.660;5.824;2023-09-12T05:08:16;129300.0;;;190.6;100.0
60719;BME280;46567;51.660;5.824;2023-09-12T05:13:16;129290.0;;;190.6;100.0
60719;BME280;46567;51.660;5.824;2023-09-12T05:18:16;129300.0;;;190.6;100.0
60719;BME280;46567;51.660;5.824;2023-09-12T05:23:16;129300.0;;;190.6;100.0
60719;BME280;46567;51.660;5.824;2023-09-12T05:28:16;129300.0;;;190.6;100.0
60719;BME280;46567;51.660;5.824;2023-09-12T05:33:16;129290.0;;;190.6;100.0
60719;BME280;46567;51.660;5.824;2023-09-12T05:38:16;129290.0;;;190.6;100.0
60719;BME280;46567;51.660;5.824;2023-09-12T05:43:16;129300.0;;;190.6;100.0
60719;BME280;46567;51.660;5.824;2023-09-12T05:48:16;129310.0;;;190.6;100.0
60719;BME280;46567;51.660;5.824;2023-09-12T05:53:16;129300.0;;;190.6;100.0
60719;BME280;46567;51.660;5.824;2023-09-12T05:58:16;129300.0;;;190.6;100.0
60719;BME280;46567;51.660;5.824;2023-09-12T06:03:16;129310.0;;;190.6;100.0
60719;BME280;46567;51.660;5.824;2023-09-12T06:08:16;129300.0;;;190.6;100.0
60719;BME280;46567;51.660;5.824;2023-09-12T06:13:16;129300.0;;;190.6;100.0
60719;BME280;46567;51.660;5.824;2023-09-12T06:18:16;129300.0;;;190.6;100.0
60719;BME280;46567;51.660;5.824;2023-09-12T06:23:16;129310.0;;;190.6;100.0
60719;BME280;46567;51.660;5.824;2023-09-12T06:28:25;129280.0;;;190.6;100.0
60719;BME280;46567;51.660;5.824;2023-09-12T06:33:16;129280.0;;;190.6;100.0
60719;BME280;46567;51.660;5.824;2023-09-12T06:38:16;129270.0;;;190.6;100.0
60719;BME280;46567;51.660;5.824;2023-09-12T06:43:16;129250.0;;;190.6;100.0
60719;BME280;46567;51.660;5.824;2023-09-12T06:48:16;129260.0;;;190.6;100.0
60719;BME280;46567;51.660;5.824;2023-09-12T06:53:16;129250.0;;;190.6;100.0
60719;BME280;46567;51.660;5.824;2023-09-12T06:58:16;129240.0;;;190.6;100.0
60719;BME280;46567;51.660;5.824;2023-09-12T07:03:16;129250.0;;;190.6;100.0
60719;BME280;46567;51.660;5.824;2023-09-12T07:08:16;129270.0;;;190.6;100.0
60719;BME280;46567;51.660;5.824;2023-09-12T07:13:16;129290.0;;;190.6;100.0
60719;BME280;46567;51.660;5.824;2023-09-12T07:18:16;129290.0;;;190.6;100.0
60719;BME280;46567;51.660;5.824;2023-09-12T07:23:16;129250.0;;;190.6;100.0
60719;BME280;46567;51.660;5.824;2023-09-12T07:28:16;129240.0;;;190.6;100.0
60719;BME280;46567;51.660;5.824;2023-09-12T07:33:16;129210.0;;;190.6;100.0
60719;BME280;46567;51.660;5.824;2023-09-12T07:38:16;129170.0;;;190.6;100.0
60719;BME280;46567;51.660;5.824;2023-09-12T07:43:16;129120.0;;;190.6;100.0
60719;BME280;46567;51.660;5.824;2023-09-12T07:48:16;129080.0;;;190.6;100.0
60719;BME280;46567;51.660;5.824;2023-09-12T07:53:16;129050.0;;;190.6;100.0
60719;BME280;46567;51.660;5.824;2023-09-12T07:58:17;129000.0;;;190.6;100.0
60719;BME280;46567;51.660;5.824;2023-09-12T08:03:17;128940.0;;;190.6;100.0
60719;BME280;46567;51.660;5.824;2023-09-12T08:08:16;128870.0;;;190.6;100.0
60719;BME280;46567;51.660;5.824;2023-09-12T08:13:16;128790.0;;;190.6;100.0
60719;BME280;46567;51.660;5.824;2023-09-12T08:18:16;128710.0;;;190.6;100.0
60719;BME280;46567;51.660;5.824;2023-09-12T08:23:16;128640.0;;;190.6;100.0
60719;BME280;46567;51.660;5.824;2023-09-12T08:28:16;128580.0;;;190.6;100.0
60719;BME280;46567;51.660;5.824;2023-09-12T08:33:16;128550.0;;;190.6;100.0
60719;BME280;46567;51.660;5.824;2023-09-12T08:38:16;128510.0;;;190.6;100.0
60719;BME280;46567;51.660;5.824;2023-09-12T08:43:16;128480.0;;;190.6;100.0
60719;BME280;46567;51.660;5.824;2023-09-12T08:48:17;128430.0;;;190.6;100.0
60719;BME280;46567;51.660;5.824;2023-09-12T08:53:16;128430.0;;;190.6;100.0
60719;BME280;46567;51.660;5.824;2023-09-12T08:58:16;128450.0;;;190.6;100.0
60719;BME280;46567;51.660;5.824;2023-09-12T09:03:16;128480.0;;;190.6;100.0
60719;BME280;46567;51.660;5.824;2023-09-12T09:08:17;128500.0;;;190.6;100.0
60719;BME280;46567;51.660;5.824;2023-09-12T09:13:16;128530.0;;;190.6;100.0
60719;BME280;46567;51.660;5.824;2023-09-12T09:18:16;128500.0;;;190.6;100.0
60719;BME280;46567;51.660;5.824;2023-09-12T09:23:16;128480.0;;;190.6;100.0
60719;BME280;46567;51.660;5.824;2023-09-12T09:28:17;128480.0;;;190.6;100.0
60719;BME280;46567;51.660;5.824;2023-09-12T09:33:16;128480.0;;;190.6;100.0
60719;BME280;46567;51.660;5.824;2023-09-12T09:38:19;128430.0;;;190.6;100.0
60719;BME280;46567;51.660;5.824;2023-09-12T09:43:19;128380.0;;;190.6;100.0
60719;BME280;46567;51.660;5.824;2023-09-12T09:48:23;128330.0;;;190.6;100.0
60719;BME280;46567;51.660;5.824;2023-09-12T09:53:16;128300.0;;;190.6;100.0
60719;BME280;46567;51.660;5.824;2023-09-12T09:58:16;128260.0;;;190.6;99.0
60719;BME280;46567;51.660;5.824;2023-09-12T10:03:20;128210.0;;;190.6;98.0
60719;BME280;46567;51.660;5.824;2023-09-12T10:08:17;128170.0;;;190.6;95.0
60719;BME280;46567;51.660;5.824;2023-09-12T10:13:16;128140.0;;;190.6;94.0
60719;BME280;46567;51.660;5.824;2023-09-12T10:18:24;128120.0;;;190.6;93.5
60719;BME280;46567;51.660;5.824;2023-09-12T10:23:41;128090.0;;;190.6;92.0
60719;BME280;46567;51.660;5.824;2023-09-12T10:28:17;128060.0;;;190.6;91.0
60719;BME280;46567;51.660;5.824;2023-09-12T10:33:16;128020.0;;;190.6;90.0
60719;BME280;46567;51.660;5.824;2023-09-12T10:38:20;128000.0;;;190.6;86.0
60719;BME280;46567;51.660;5.824;2023-09-12T10:43:16;128010.0;;;190.6;88.0
60719;BME280;46567;51.660;5.824;2023-09-12T10:48:16;127970.0;;;190.6;87.0
60719;BME280;46567;51.660;5.824;2023-09-12T10:53:16;127920.0;;;190.6;84.5
60719;BME280;46567;51.660;5.824;2023-09-12T10:58:16;127910.0;;;190.6;85.5
60719;BME280;46567;51.660;5.824;2023-09-12T11:03:38;127890.0;;;190.6;82.5
60719;BME280;46567;51.660;5.824;2023-09-12T11:08:16;127870.0;;;190.6;82.5
60719;BME280;46567;51.660;5.824;2023-09-12T11:13:18;127860.0;;;190.6;80.0
60719;BME280;46567;51.660;5.824;2023-09-12T11:18:16;127840.0;;;190.6;80.0
60719;BME280;46567;51.660;5.824;2023-09-12T11:23:16;127830.0;;;190.6;79.5
60719;BME280;46567;51.660;5.824;2023-09-12T11:28:18;127820.0;;;190.6;79.0
60719;BME280;46567;51.660;5.824;2023-09-12T11:33:16;127830.0;;;190.6;78.5
60719;BME280;46567;51.660;5.824;2023-09-12T11:38:25;127820.0;;;190.6;77.5
60719;BME280;46567;51.660;5.824;2023-09-12T11:43:22;127790.0;;;190.6;78.5
60719;BME280;46567;51.660;5.824;2023-09-12T11:48:16;127760.0;;;190.6;77.0
60719;BME280;46567;51.660;5.824;2023-09-12T11:53:20;127790.0;;;190.6;78.5
60719;BME280;46567;51.660;5.824;2023-09-12T11:58:17;127840.0;;;190.6;78.0
60719;BME280;46567;51.660;5.824;2023-09-12T12:03:17;127850.0;;;190.6;78.5
60719;BME280;46567;51.660;5.824;2023-09-12T12:08:17;127840.0;;;190.6;77.5
60719;BME280;46567;51.660;5.824;2023-09-12T12:13:17;127810.0;;;190.6;76.5
60719;BME280;46567;51.660;5.824;2023-09-12T12:18:16;127810.0;;;190.6;77.5
60719;BME280;46567;51.660;5.824;2023-09-12T12:23:16;127820.0;;;190.6;77.0
60719;BME280;46567;51.660;5.824;2023-09-12T12:28:16;127810.0;;;190.6;75.5
60719;BME280;46567;51.660;5.824;2023-09-12T12:33:16;127870.0;;;190.6;74.5
60719;BME280;46567;51.660;5.824;2023-09-12T12:38:16;127920.0;;;190.6;74.5
60719;BME280;46567;51.660;5.824;2023-09-12T12:43:17;127950.0;;;190.6;75.5
60719;BME280;46567;51.660;5.824;2023-09-12T12:48:16;127980.0;;;190.6;75.0
60719;BME280;46567;51.660;5.824;2023-09-12T12:53:16;127960.0;;;190.6;76.0
60719;BME280;46567;51.660;5.824;2023-09-12T12:58:16;127970.0;;;190.6;75.5
60719;BME280;46567;51.660;5.824;2023-09-12T13:03:16;127940.0;;;190.6;74.5
60719;BME280;46567;51.660;5.824;2023-09-12T13:08:16;127870.0;;;190.6;74.5
60719;BME280;46567;51.660;5.824;2023-09-12T13:13:16;127800.0;;;190.6;72.0
60719;BME280;46567;51.660;5.824;2023-09-12T13:18:16;127750.0;;;190.6;73.0
60719;BME280;46567;51.660;5.824;2023-09-12T13:23:16;127710.0;;;190.6;71.0
60719;BME280;46567;51.660;5.824;2023-09-12T13:28:16;127730.0;;;190.6;72.0
60719;BME280;46567;51.660;5.824;2023-09-12T13:33:16;127780.0;;;190.6;70.5
60719;BME280;46567;51.660;5.824;2023-09-12T13:38:16;127730.0;;;190.6;72.0
60719;BME280;46567;51.660;5.824;2023-09-12T13:43:16;127640.0;;;190.6;70.5
60719;BME280;46567;51.660;5.824;2023-09-12T13:48:16;127610.0;;;190.6;66.5
60719;BME280;46567;51.660;5.824;2023-09-12T13:53:16;127620.0;;;190.6;66.5
60719;BME280;46567;51.660;5.824;2023-09-12T13:58:16;127700.0;;;190.6;66.0
60719;BME280;46567;51.660;5.824;2023-09-12T14:03:16;127700.0;;;190.6;66.0
60719;BME280;46567;51.660;5.824;2023-09-12T14:08:16;127660.0;;;190.6;65.5
60719;BME280;46567;51.660;5.824;2023-09-12T14:13:16;127600.0;;;190.6;65.0
60719;BME280;46567;51.660;5.824;2023-09-12T14:18:16;127550.0;;;190.6;66.5
60719;BME280;46567;51.660;5.824;2023-09-12T14:23:16;127490.0;;;190.6;64.0
60719;BME280;46567;51.660;5.824;2023-09-12T14:28:16;127450.0;;;190.6;64.5
60719;BME280;46567;51.660;5.824;2023-09-12T14:33:16;127440.0;;;190.6;63.0
60719;BME280;46567;51.660;5.824;2023-09-12T14:38:16;127500.0;;;190.6;62.5
60719;BME280;46567;51.660;5.824;2023-09-12T14:43:16;127550.0;;;190.6;64.5
60719;BME280;46567;51.660;5.824;2023-09-12T14:48:16;127530.0;;;190.6;64.0
60719;BME280;46567;51.660;5.824;2023-09-12T14:53:16;127500.0;;;190.6;64.5
60719;BME280;46567;51.660;5.824;2023-09-12T14:58:16;127470.0;;;190.6;64.5
60719;BME280;46567;51.660;5.824;2023-09-12T15:03:16;127450.0;;;190.6;62.0
60719;BME280;46567;51.660;5.824;2023-09-12T15:08:16;127480.0;;;190.6;63.0
60719;BME280;46567;51.660;5.824;2023-09-12T15:13:16;127440.0;;;190.6;62.5
60719;BME280;46567;51.660;5.824;2023-09-12T15:18:16;127460.0;;;190.6;61.0
60719;BME280;46567;51.660;5.824;2023-09-12T15:23:16;127520.0;;;190.6;60.5
60719;BME280;46567;51.660;5.824;2023-09-12T15:28:16;127530.0;;;190.6;61.0
60719;BME280;46567;51.660;5.824;2023-09-12T15:33:16;127510.0;;;190.6;61.5
60719;BME280;46567;51.660;5.824;2023-09-12T15:38:16;127520.0;;;190.6;61.5
60719;BME280;46567;51.660;5.824;2023-09-12T15:43:16;127560.0;;;190.6;61.5
60719;BME280;46567;51.660;5.824;2023-09-12T15:48:16;127610.0;;;190.6;62.5
60719;BME280;46567;51.660;5.824;2023-09-12T15:53:16;127620.0;;;190.6;63.5
60719;BME280;46567;51.660;5.824;2023-09-12T15:58:16;127600.0;;;190.6;63.5
60719;BME280;46567;51.660;5.824;2023-09-12T16:08:16;127630.0;;;190.6;63.5
60719;BME280;46567;51.660;5.824;2023-09-12T16:13:16;127660.0;;;190.6;63.0
60719;BME280;46567;51.660;5.824;2023-09-12T16:18:16;127700.0;;;190.6;64.5
60719;BME280;46567;51.660;5.824;2023-09-12T16:23:16;127700.0;;;190.6;65.5
60719;BME280;46567;51.660;5.824;2023-09-12T16:28:16;127750.0;;;190.6;67.0
60719;BME280;46567;51.660;5.824;2023-09-12T16:33:16;127780.0;;;190.6;67.5
60719;BME280;46567;51.660;5.824;2023-09-12T16:38:16;127810.0;;;190.6;68.0
60719;BME280;46567;51.660;5.824;2023-09-12T16:43:16;127820.0;;;190.6;68.5
60719;BME280;46567;51.660;5.824;2023-09-12T16:48:16;127840.0;;;190.6;68.5
60719;BME280;46567;51.660;5.824;2023-09-12T16:53:16;127880.0;;;190.6;68.5
60719;BME280;46567;51.660;5.824;2023-09-12T16:58:16;127930.0;;;190.6;69.5
60719;BME280;46567;51.660;5.824;2023-09-12T17:03:16;127970.0;;;190.6;70.5
60719;BME280;46567;51.660;5.824;2023-09-12T17:08:16;128010.0;;;190.6;70.5
60719;BME280;46567;51.660;5.824;2023-09-12T17:13:16;128000.0;;;190.6;72.0
60719;BME280;46567;51.660;5.824;2023-09-12T17:18:16;128010.0;;;190.6;73.5
60719;BME280;46567;51.660;5.824;2023-09-12T17:23:16;128030.0;;;190.6;75.0
60719;BME280;46567;51.660;5.824;2023-09-12T17:28:16;128050.0;;;190.6;75.5
60719;BME280;46567;51.660;5.824;2023-09-12T17:33:16;128080.0;;;190.6;76.0
60719;BME280;46567;51.660;5.824;2023-09-12T17:38:16;128100.0;;;190.6;77.5
60719;BME280;46567;51.660;5.824;2023-09-12T17:43:16;128130.0;;;190.6;78.0
60719;BME280;46567;51.660;5.824;2023-09-12T17:48:16;128150.0;;;190.6;78.5
60719;BME280;46567;51.660;5.824;2023-09-12T17:53:16;128160.0;;;190.6;79.5
60719;BME280;46567;51.660;5.824;2023-09-12T17:58:16;128190.0;;;190.6;81.0
60719;BME280;46567;51.660;5.824;2023-09-12T18:03:16;128220.0;;;190.6;81.0
60719;BME280;46567;51.660;5.824;2023-09-12T18:08:16;128250.0;;;190.6;82.0
60719;BME280;46567;51.660;5.824;2023-09-12T18:13:16;128280.0;;;190.6;83.0
60719;BME280;46567;51.660;5.824;2023-09-12T18:18:16;128310.0;;;190.6;84.0
60719;BME280;46567;51.660;5.824;2023-09-12T18:23:16;128330.0;;;190.6;85.0
60719;BME280;46567;51.660;5.824;2023-09-12T18:28:36;128360.0;;;190.6;86.0
60719;BME280;46567;51.660;5.824;2023-09-12T18:33:16;128390.0;;;190.6;87.5
60719;BME280;46567;51.660;5.824;2023-09-12T18:38:16;128440.0;;;190.6;88.0
60719;BME280;46567;51.660;5.824;2023-09-12T18:43:16;128470.0;;;190.6;90.0
60719;BME280;46567;51.660;5.824;2023-09-12T18:48:16;128500.0;;;190.6;91.0
60719;BME280;46567;51.660;5.824;2023-09-12T18:53:16;128520.0;;;190.6;91.0
60719;BME280;46567;51.660;5.824;2023-09-12T18:58:16;128540.0;;;190.6;92.5
60719;BME280;46567;51.660;5.824;2023-09-12T19:03:16;128550.0;;;190.6;92.5
60719;BME280;46567;51.660;5.824;2023-09-12T19:08:16;128550.0;;;190.6;93.0
60719;BME280;46567;51.660;5.824;2023-09-12T19:13:16;128560.0;;;190.6;93.5
60719;BME280;46567;51.660;5.824;2023-09-12T19:18:16;128560.0;;;190.6;94.5
60719;BME280;46567;51.660;5.824;2023-09-12T19:23:16;128560.0;;;190.6;95.5
60719;BME280;46567;51.660;5.824;2023-09-12T19:28:16;128570.0;;;190.6;96.0
60719;BME280;46567;51.660;5.824;2023-09-12T19:33:17;128570.0;;;190.6;97.0
60719;BME280;46567;51.660;5.824;2023-09-12T19:38:16;128580.0;;;190.6;97.5
60719;BME280;46567;51.660;5.824;2023-09-12T19:43:16;128590.0;;;190.6;98.5
60719;BME280;46567;51.660;5.824;2023-09-12T19:48:16;128600.0;;;190.6;99.0
60719;BME280;46567;51.660;5.824;2023-09-12T19:53:16;128610.0;;;190.6;100.0
60719;BME280;46567;51.660;5.824;2023-09-12T19:58:16;128620.0;;;190.6;100.0
60719;BME280;46567;51.660;5.824;2023-09-12T20:03:16;128620.0;;;190.6;100.0
60719;BME280;46567;51.660;5.824;2023-09-12T20:08:16;128610.0;;;190.6;100.0
60719;BME280;46567;51.660;5.824;2023-09-12T20:13:16;128610.0;;;190.6;100.0
60719;BME280;46567;51.660;5.824;2023-09-12T20:18:16;128620.0;;;190.6;100.0
60719;BME280;46567;51.660;5.824;2023-09-12T20:23:16;128630.0;;;190.6;100.0
60719;BME280;46567;51.660;5.824;2023-09-12T20:28:16;128640.0;;;190.6;100.0
60719;BME280;46567;51.660;5.824;2023-09-12T20:33:16;128650.0;;;190.6;100.0
60719;BME280;46567;51.660;5.824;2023-09-12T20:38:16;128680.0;;;190.6;100.0
60719;BME280;46567;51.660;5.824;2023-09-12T20:43:16;128700.0;;;190.6;100.0
60719;BME280;46567;51.660;5.824;2023-09-12T20:48:16;128700.0;;;190.6;100.0
60719;BME280;46567;51.660;5.824;2023-09-12T20:53:16;128710.0;;;190.6;100.0
60719;BME280;46567;51.660;5.824;2023-09-12T20:58:16;128720.0;;;190.6;100.0
60719;BME280;46567;51.660;5.824;2023-09-12T21:03:16;128720.0;;;190.6;100.0
60719;BME280;46567;51.660;5.824;2023-09-12T21:08:16;128720.0;;;190.6;100.0
60719;BME280;46567;51.660;5.824;2023-09-12T21:13:16;128740.0;;;190.6;100.0
60719;BME280;46567;51.660;5.824;2023-09-12T21:18:16;128750.0;;;190.6;100.0
60719;BME280;46567;51.660;5.824;2023-09-12T21:23:16;128770.0;;;190.6;100.0
60719;BME280;46567;51.660;5.824;2023-09-12T21:28:16;128800.0;;;190.6;100.0
60719;BME280;46567;51.660;5.824;2023-09-12T21:33:16;128800.0;;;190.6;100.0
60719;BME280;46567;51.660;5.824;2023-09-12T21:38:16;128810.0;;;190.6;100.0
60719;BME280;46567;51.660;5.824;2023-09-12T21:43:16;128810.0;;;190.6;100.0
60719;BME280;46567;51.660;5.824;2023-09-12T21:48:16;128810.0;;;190.6;100.0
60719;BME280;46567;51.660;5.824;2023-09-12T21:53:16;128840.0;;;190.6;100.0
60719;BME280;46567;51.660;5.824;2023-09-12T21:58:16;128860.0;;;190.6;100.0
60719;BME280;46567;51.660;5.824;2023-09-12T22:03:16;128860.0;;;190.6;100.0
60719;BME280;46567;51.660;5.824;2023-09-12T22:08:16;128880.0;;;190.6;100.0
60719;BME280;46567;51.660;5.824;2023-09-12T22:13:16;128870.0;;;190.6;100.0
60719;BME280;46567;51.660;5.824;2023-09-12T22:18:17;128870.0;;;190.6;100.0
60719;BME280;46567;51.660;5.824;2023-09-12T22:23:16;128870.0;;;190.6;100.0
60719;BME280;46567;51.660;5.824;2023-09-12T22:28:16;128880.0;;;190.6;100.0
60719;BME280;46567;51.660;5.824;2023-09-12T22:33:16;128890.0;;;190.6;100.0
60719;BME280;46567;51.660;5.824;2023-09-12T22:38:16;128890.0;;;190.6;100.0
60719;BME280;46567;51.660;5.824;2023-09-12T22:43:16;128920.0;;;190.6;100.0
60719;BME280;46567;51.660;5.824;2023-09-12T22:48:16;128930.0;;;190.6;100.0
60719;BME280;46567;51.660;5.824;2023-09-12T22:53:16;128950.0;;;190.6;100.0
60719;BME280;46567;51.660;5.824;2023-09-12T22:58:16;128960.0;;;190.6;100.0
60719;BME280;46567;51.660;5.824;2023-09-12T23:03:16;128970.0;;;190.6;100.0
60719;BME280;46567;51.660;5.824;2023-09-12T23:08:16;128970.0;;;190.6;100.0
60719;BME280;46567;51.660;5.824;2023-09-12T23:13:16;128980.0;;;190.6;100.0
60719;BME280;46567;51.660;5.824;2023-09-12T23:18:16;128970.0;;;190.6;100.0
60719;BME280;46567;51.660;5.824;2023-09-12T23:23:16;128960.0;;;190.6;100.0
60719;BME280;46567;51.660;5.824;2023-09-12T23:28:16;128960.0;;;190.6;100.0
60719;BME280;46567;51.660;5.824;2023-09-12T23:33:16;128960.0;;;190.6;100.0
60719;BME280;46567;51.660;5.824;2023-09-12T23:38:16;128960.0;;;190.6;100.0
60719;BME280;46567;51.660;5.824;2023-09-12T23:43:16;128970.0;;;190.6;100.0
60719;BME280;46567;51.660;5.824;2023-09-12T23:53:16;129000.0;;;190.6;100.0
60719;BME280;46567;51.660;5.824;2023-09-12T23:58:16;129000.0;;;190.6;100.0
